createdAt,value
2023-04-17T00:00:26.369Z,61.42
2023-04-17T00:05:31.918Z,61.06
2023-04-17T00:10:34.959Z,61.02
2023-04-17T00:15:38.159Z,60.82
2023-04-17T00:20:41.418Z,61.28
2023-04-17T00:25:44.476Z,61.04
2023-04-17T00:30:47.374Z,60.63
2023-04-17T00:35:50.470Z,60.66
2023-04-17T00:40:53.841Z,60.22
2023-04-17T00:45:57.510Z,60.11
2023-04-17T00:51:03.474Z,60.20
2023-04-17T00:56:07.109Z,60.20
2023-04-17T01:01:10.293Z,59.60
2023-04-17T01:06:13.309Z,59.26
2023-04-17T01:11:16.262Z,59.32
2023-04-17T01:16:20.935Z,59.38
2023-04-17T01:21:24.038Z,59.92
2023-04-17T01:26:30.894Z,59.92
2023-04-17T01:31:34.394Z,60.42
2023-04-17T01:36:37.313Z,61.74
2023-04-17T01:41:40.625Z,62.86
2023-04-17T01:46:43.580Z,62.23
2023-04-17T01:51:46.566Z,62.46
2023-04-17T01:56:49.508Z,63.19
2023-04-17T02:01:53.465Z,63.16
2023-04-17T02:06:56.366Z,63.65
2023-04-17T02:11:59.303Z,64.21
2023-04-17T02:17:02.543Z,65.24
2023-04-17T02:22:05.690Z,65.12
2023-04-17T02:27:08.561Z,65.41
2023-04-17T02:32:11.513Z,66.10
2023-04-17T02:37:14.613Z,66.17
2023-04-17T02:42:17.539Z,65.41
2023-04-17T02:47:20.586Z,65.03
2023-04-17T02:52:23.957Z,64.30
2023-04-17T02:57:27.269Z,63.29
2023-04-17T03:02:30.664Z,63.51
2023-04-17T03:07:33.971Z,63.58
2023-04-17T03:12:37.351Z,63.36
2023-04-17T03:17:40.544Z,63.26
2023-04-17T03:22:43.533Z,63.01
2023-04-17T03:27:46.811Z,63.69
2023-04-17T03:32:50.403Z,64.36
2023-04-17T03:37:53.529Z,63.54
2023-04-17T03:42:56.539Z,63.57
2023-04-17T03:47:59.531Z,63.71
2023-04-17T03:53:02.601Z,63.25
2023-04-17T03:58:05.551Z,63.33
2023-04-17T04:03:08.645Z,63.07
2023-04-17T04:08:11.620Z,61.72
2023-04-17T04:13:14.570Z,62.07
2023-04-17T04:18:17.554Z,61.12
2023-04-17T04:23:21.290Z,61.76
2023-04-17T04:28:24.523Z,61.37
2023-04-17T04:33:27.731Z,61.54
2023-04-17T04:38:31.173Z,61.51
2023-04-17T04:43:34.279Z,60.30
2023-04-17T04:48:37.721Z,60.43
2023-04-17T04:53:41.626Z,60.80
2023-04-17T04:58:44.574Z,61.07
2023-04-17T05:03:47.792Z,60.94
2023-04-17T05:08:52.105Z,60.86
2023-04-17T05:13:54.824Z,58.72
2023-04-17T05:18:59.020Z,58.62
2023-04-17T05:24:02.063Z,58.92
2023-04-17T05:29:05.156Z,59.20
2023-04-17T05:34:08.602Z,60.24
2023-04-17T05:39:11.880Z,57.98
2023-04-17T05:44:14.956Z,58.54
2023-04-17T05:49:18.092Z,58.56
2023-04-17T05:54:21.078Z,57.70
2023-04-17T05:59:24.024Z,57.60
2023-04-17T06:04:27.181Z,58.80
2023-04-17T06:09:30.378Z,58.63
2023-04-17T06:14:33.527Z,59.00
2023-04-17T06:19:36.552Z,57.99
2023-04-17T06:24:39.456Z,56.65
2023-04-17T06:29:42.283Z,57.45
2023-04-17T06:34:58.593Z,55.99
2023-04-17T06:40:02.685Z,57.18
2023-04-17T06:45:07.059Z,56.28
2023-04-17T06:50:10.542Z,56.48
2023-04-17T06:55:13.722Z,55.33
2023-04-17T07:00:17.219Z,54.64
2023-04-17T07:05:20.336Z,53.34
2023-04-17T07:10:23.620Z,52.72
2023-04-17T07:15:30.636Z,51.64
2023-04-17T07:20:33.793Z,50.69
2023-04-17T07:25:36.730Z,50.44
2023-04-17T07:30:39.756Z,50.79
2023-04-17T07:35:43.981Z,49.06
2023-04-17T07:40:46.991Z,49.58
2023-04-17T07:45:50.103Z,45.78
2023-04-17T07:50:53.522Z,44.66
2023-04-17T07:55:58.413Z,45.39
2023-04-17T08:01:05.629Z,46.38
2023-04-17T08:06:08.659Z,47.18
2023-04-17T08:11:11.677Z,46.83
2023-04-17T08:16:14.852Z,46.35
2023-04-17T08:21:17.900Z,48.76
2023-04-17T08:26:20.936Z,49.36
2023-04-17T08:31:23.916Z,49.05
2023-04-17T08:36:27.569Z,48.92
2023-04-17T08:41:39.453Z,48.25
2023-04-17T08:46:42.733Z,48.78
2023-04-17T08:51:47.243Z,48.50
2023-04-17T08:56:50.714Z,48.96
2023-04-17T09:02:05.068Z,49.26
2023-04-17T09:07:11.198Z,48.81
2023-04-17T09:12:14.807Z,48.29
2023-04-17T09:17:20.289Z,45.11
2023-04-17T09:22:23.384Z,44.56
2023-04-17T09:27:28.127Z,45.19
2023-04-17T09:32:33.055Z,45.09
2023-04-17T09:37:51.608Z,45.58
2023-04-17T09:43:00.372Z,43.59
2023-04-17T09:48:13.036Z,42.19
2023-04-17T09:53:18.308Z,39.62
2023-04-17T09:58:22.262Z,40.72
2023-04-17T10:03:26.463Z,38.18
2023-04-17T10:08:29.578Z,39.07
2023-04-17T10:13:38.789Z,38.47
2023-04-17T10:18:42.117Z,41.31
2023-04-17T10:23:45.324Z,41.79
2023-04-17T10:28:50.046Z,40.19
2023-04-17T10:33:54.629Z,40.74
2023-04-17T10:39:16.422Z,39.18
2023-04-17T10:44:19.413Z,39.20
2023-04-17T10:49:22.420Z,38.82
2023-04-17T10:54:25.507Z,40.28
2023-04-17T10:59:30.285Z,41.24
2023-04-17T11:04:36.122Z,42.24
2023-04-17T11:09:40.042Z,43.00
2023-04-17T11:14:44.013Z,43.25
2023-04-17T11:19:47.905Z,45.11
2023-04-17T11:24:51.827Z,43.54
2023-04-17T11:29:54.951Z,44.00
2023-04-17T11:34:58.117Z,44.48
2023-04-17T11:40:10.267Z,43.30
2023-04-17T11:45:13.365Z,41.01
2023-04-17T11:50:16.461Z,41.82
2023-04-17T11:55:19.615Z,40.92
2023-04-17T12:00:27.587Z,41.46
2023-04-17T12:05:31.506Z,39.99
2023-04-17T12:10:40.968Z,39.14
2023-04-17T12:15:44.022Z,38.72
2023-04-17T12:20:48.661Z,39.06
2023-04-17T12:25:51.646Z,39.74
2023-04-17T12:30:54.461Z,40.24
2023-04-17T12:35:57.949Z,40.22
2023-04-17T12:41:01.048Z,41.12
2023-04-17T12:46:04.554Z,40.69
2023-04-17T12:51:11.663Z,41.09
2023-04-17T12:56:15.239Z,37.80
2023-04-17T13:01:18.498Z,37.44
2023-04-17T13:06:21.588Z,38.39
2023-04-17T13:11:24.772Z,34.23
2023-04-17T13:16:27.846Z,33.95
2023-04-17T13:21:31.173Z,33.42
2023-04-17T13:26:36.597Z,40.16
2023-04-17T13:31:39.576Z,47.20
2023-04-17T13:36:45.097Z,51.59
2023-04-17T13:41:48.573Z,54.96
2023-04-17T13:46:52.316Z,56.04
2023-04-17T13:51:55.605Z,57.40
2023-04-17T13:56:58.736Z,57.13
2023-04-17T14:02:04.180Z,57.70
2023-04-17T14:07:08.299Z,58.14
2023-04-17T14:12:11.198Z,57.98
2023-04-17T14:17:14.248Z,58.59
2023-04-17T14:22:17.263Z,58.32
2023-04-17T14:27:20.301Z,57.46
2023-04-17T14:32:23.434Z,58.12
2023-04-17T14:37:28.063Z,55.33
2023-04-17T14:42:32.695Z,55.34
2023-04-17T14:47:39.268Z,54.92
2023-04-17T14:52:42.274Z,55.03
2023-04-17T14:57:45.113Z,54.92
2023-04-17T15:02:49.191Z,54.93
2023-04-17T15:07:53.506Z,54.74
2023-04-17T15:13:00.253Z,55.22
2023-04-17T15:18:03.280Z,54.98
2023-04-17T15:23:06.421Z,54.75
2023-04-17T15:28:09.785Z,54.62
2023-04-17T15:33:14.104Z,54.73
2023-04-17T15:38:17.052Z,54.21
2023-04-17T15:43:21.186Z,54.90
2023-04-17T15:48:24.115Z,55.25
2023-04-17T15:53:27.032Z,54.98
2023-04-17T15:58:30.143Z,56.36
2023-04-17T16:03:33.517Z,56.20
2023-04-17T16:08:37.394Z,56.09
2023-04-17T16:13:40.539Z,56.44
2023-04-17T16:18:46.883Z,57.30
2023-04-17T16:23:50.015Z,57.70
2023-04-17T16:28:53.004Z,57.94
2023-04-17T16:33:56.172Z,58.65
2023-04-17T16:38:59.182Z,58.31
2023-04-17T16:44:02.139Z,57.81
2023-04-17T16:49:10.034Z,58.04
2023-04-17T16:54:13.652Z,58.21
2023-04-17T16:59:16.822Z,58.99
2023-04-17T17:04:19.975Z,59.35
2023-04-17T17:09:23.158Z,59.90
2023-04-17T17:14:26.167Z,60.03
2023-04-17T17:19:29.139Z,60.37
2023-04-17T17:24:32.400Z,60.80
2023-04-17T17:29:35.935Z,60.99
2023-04-17T17:34:39.252Z,62.03
2023-04-17T17:39:42.210Z,62.54
2023-04-17T17:44:45.784Z,63.33
2023-04-17T17:49:49.470Z,63.73
2023-04-17T17:54:52.820Z,64.53
2023-04-17T17:59:55.901Z,65.14
2023-04-17T18:04:58.957Z,65.92
2023-04-17T18:10:02.115Z,66.43
2023-04-17T18:15:06.406Z,66.97
2023-04-17T18:20:11.871Z,66.99
2023-04-17T18:25:15.111Z,67.34
2023-04-17T18:30:18.447Z,67.72
2023-04-17T18:35:21.270Z,67.76
2023-04-17T18:40:24.666Z,67.60
2023-04-17T18:45:29.329Z,67.58
2023-04-17T18:50:33.270Z,67.25
2023-04-17T18:55:39.650Z,67.10
2023-04-17T19:00:43.060Z,67.63
2023-04-17T19:05:46.527Z,67.87
2023-04-17T19:10:49.833Z,67.35
2023-04-17T19:15:53.037Z,67.37
2023-04-17T19:20:56.424Z,67.39
2023-04-17T19:25:59.397Z,67.39
2023-04-17T19:31:06.264Z,66.80
2023-04-17T19:36:09.379Z,67.10
2023-04-17T19:41:19.771Z,66.61
2023-04-17T19:46:24.596Z,66.11
2023-04-17T19:51:27.927Z,66.36
2023-04-17T19:56:31.157Z,66.26
2023-04-17T20:01:35.488Z,66.09
2023-04-17T20:06:39.736Z,66.31
2023-04-17T20:11:43.056Z,66.36
2023-04-17T20:16:46.654Z,66.79
2023-04-17T20:21:49.458Z,66.90
2023-04-17T20:26:53.204Z,67.64
2023-04-17T20:31:56.062Z,68.32
2023-04-17T20:36:58.998Z,69.89
2023-04-17T20:42:02.025Z,70.92
2023-04-17T20:47:05.666Z,71.40
2023-04-17T20:52:08.677Z,71.90
2023-04-17T20:57:11.650Z,72.36
2023-04-17T21:02:16.262Z,72.58
2023-04-17T21:07:19.854Z,72.79
2023-04-17T21:12:23.195Z,73.10
2023-04-17T21:17:26.242Z,73.25
2023-04-17T21:22:29.235Z,73.55
2023-04-17T21:27:32.236Z,74.25
2023-04-17T21:32:35.218Z,75.53
2023-04-17T21:37:38.369Z,76.11
2023-04-17T21:42:41.411Z,77.47
2023-04-17T21:47:45.331Z,78.71
2023-04-17T21:52:48.475Z,79.00
2023-04-17T21:57:51.752Z,79.32
2023-04-17T22:02:54.754Z,80.36
2023-04-17T22:07:57.815Z,80.49
2023-04-17T22:13:00.916Z,80.83
2023-04-17T22:18:04.219Z,80.87
2023-04-17T22:23:07.636Z,80.70
2023-04-17T22:28:10.613Z,80.85
2023-04-17T22:33:13.583Z,80.32
2023-04-17T22:38:18.264Z,80.19
2023-04-17T22:43:21.221Z,79.90
2023-04-17T22:48:24.628Z,79.28
2023-04-17T22:53:27.799Z,79.13
2023-04-17T22:58:33.955Z,79.39
2023-04-17T23:03:37.267Z,78.56
2023-04-17T23:08:40.372Z,77.28
2023-04-17T23:13:43.671Z,76.99
2023-04-17T23:18:46.695Z,79.03
2023-04-17T23:23:49.566Z,81.27
2023-04-17T23:28:52.557Z,83.74
2023-04-17T23:33:55.331Z,84.96
2023-04-17T23:38:58.283Z,86.65
2023-04-17T23:44:01.322Z,87.06
2023-04-17T23:49:05.152Z,88.27
2023-04-17T23:54:08.217Z,88.43
2023-04-17T23:59:11.657Z,89.00
